sensor_id;sensor_type;location;lat;lon;timestamp;P1;durP1;ratioP1;P2;durP2;ratioP2
50086;SDS011;35967;50.718;7.050;2023-02-28T00:06:24;5.73;;;2.03;;
50086;SDS011;35967;50.718;7.050;2023-02-28T00:16:28;6.90;;;2.90;;
50086;SDS011;35967;50.718;7.050;2023-02-28T00:26:32;10.00;;;3.60;;
50086;SDS011;35967;50.718;7.050;2023-02-28T00:36:35;6.73;;;3.20;;
50086;SDS011;35967;50.718;7.050;2023-02-28T00:46:40;10.83;;;3.17;;
50086;SDS011;35967;50.718;7.050;2023-02-28T00:56:43;7.30;;;3.40;;
50086;SDS011;35967;50.718;7.050;2023-02-28T01:06:48;7.07;;;2.27;;
50086;SDS011;35967;50.718;7.050;2023-02-28T01:16:52;6.30;;;2.30;;
50086;SDS011;35967;50.718;7.050;2023-02-28T01:26:56;9.20;;;2.00;;
50086;SDS011;35967;50.718;7.050;2023-02-28T01:37:00;5.17;;;2.17;;
50086;SDS011;35967;50.718;7.050;2023-02-28T01:47:04;3.83;;;1.90;;
50086;SDS011;35967;50.718;7.050;2023-02-28T01:57:09;8.23;;;2.27;;
50086;SDS011;35967;50.718;7.050;2023-02-28T02:07:17;7.37;;;2.60;;
50086;SDS011;35967;50.718;7.050;2023-02-28T02:17:22;7.30;;;2.73;;
50086;SDS011;35967;50.718;7.050;2023-02-28T02:37:55;7.37;;;2.87;;
50086;SDS011;35967;50.718;7.050;2023-02-28T02:48:03;10.23;;;2.40;;
50086;SDS011;35967;50.718;7.050;2023-02-28T02:58:14;8.20;;;3.00;;
50086;SDS011;35967;50.718;7.050;2023-02-28T03:08:21;8.60;;;2.20;;
50086;SDS011;35967;50.718;7.050;2023-02-28T03:18:27;5.47;;;2.03;;
50086;SDS011;35967;50.718;7.050;2023-02-28T03:28:40;7.03;;;2.73;;
50086;SDS011;35967;50.718;7.050;2023-02-28T03:50:37;8.33;;;2.17;;
50086;SDS011;35967;50.718;7.050;2023-02-28T04:00:43;8.13;;;2.43;;
50086;SDS011;35967;50.718;7.050;2023-02-28T04:10:51;7.80;;;1.93;;
50086;SDS011;35967;50.718;7.050;2023-02-28T04:20:59;5.70;;;2.13;;
50086;SDS011;35967;50.718;7.050;2023-02-28T04:31:04;7.07;;;2.10;;
50086;SDS011;35967;50.718;7.050;2023-02-28T04:41:08;6.93;;;2.40;;
50086;SDS011;35967;50.718;7.050;2023-02-28T04:51:13;5.33;;;2.20;;
50086;SDS011;35967;50.718;7.050;2023-02-28T05:01:19;7.97;;;2.40;;
50086;SDS011;35967;50.718;7.050;2023-02-28T05:11:25;7.83;;;2.70;;
50086;SDS011;35967;50.718;7.050;2023-02-28T05:21:35;12.30;;;2.50;;
50086;SDS011;35967;50.718;7.050;2023-02-28T05:31:41;6.23;;;2.63;;
50086;SDS011;35967;50.718;7.050;2023-02-28T05:41:44;7.93;;;2.43;;
50086;SDS011;35967;50.718;7.050;2023-02-28T05:51:49;7.60;;;2.33;;
50086;SDS011;35967;50.718;7.050;2023-02-28T06:01:52;7.70;;;2.53;;
50086;SDS011;35967;50.718;7.050;2023-02-28T06:11:58;9.07;;;3.73;;
50086;SDS011;35967;50.718;7.050;2023-02-28T06:22:01;4.97;;;2.30;;
50086;SDS011;35967;50.718;7.050;2023-02-28T06:32:05;6.10;;;2.33;;
50086;SDS011;35967;50.718;7.050;2023-02-28T06:42:09;7.23;;;3.20;;
50086;SDS011;35967;50.718;7.050;2023-02-28T06:52:13;7.20;;;3.00;;
50086;SDS011;35967;50.718;7.050;2023-02-28T07:02:16;6.23;;;2.77;;
50086;SDS011;35967;50.718;7.050;2023-02-28T07:12:20;5.27;;;2.40;;
50086;SDS011;35967;50.718;7.050;2023-02-28T07:22:23;9.17;;;3.23;;
50086;SDS011;35967;50.718;7.050;2023-02-28T07:32:28;5.90;;;2.77;;
50086;SDS011;35967;50.718;7.050;2023-02-28T07:42:32;7.67;;;3.80;;
50086;SDS011;35967;50.718;7.050;2023-02-28T07:52:37;9.17;;;3.30;;
50086;SDS011;35967;50.718;7.050;2023-02-28T08:02:40;4.33;;;2.23;;
50086;SDS011;35967;50.718;7.050;2023-02-28T08:12:44;6.70;;;2.30;;
50086;SDS011;35967;50.718;7.050;2023-02-28T08:22:48;4.87;;;2.07;;
50086;SDS011;35967;50.718;7.050;2023-02-28T08:32:53;4.30;;;2.10;;
50086;SDS011;35967;50.718;7.050;2023-02-28T08:42:57;3.07;;;1.30;;
50086;SDS011;35967;50.718;7.050;2023-02-28T08:53:01;5.50;;;1.70;;
50086;SDS011;35967;50.718;7.050;2023-02-28T09:03:05;3.10;;;1.60;;
50086;SDS011;35967;50.718;7.050;2023-02-28T09:13:10;3.10;;;1.40;;
50086;SDS011;35967;50.718;7.050;2023-02-28T09:23:13;2.73;;;1.40;;
50086;SDS011;35967;50.718;7.050;2023-02-28T09:33:18;2.90;;;1.10;;
50086;SDS011;35967;50.718;7.050;2023-02-28T09:43:23;3.73;;;1.20;;
50086;SDS011;35967;50.718;7.050;2023-02-28T09:53:32;2.97;;;1.27;;
50086;SDS011;35967;50.718;7.050;2023-02-28T10:03:38;2.80;;;1.07;;
50086;SDS011;35967;50.718;7.050;2023-02-28T10:13:51;3.97;;;1.07;;
50086;SDS011;35967;50.718;7.050;2023-02-28T10:24:01;2.57;;;1.00;;
50086;SDS011;35967;50.718;7.050;2023-02-28T10:34:08;3.73;;;1.13;;
50086;SDS011;35967;50.718;7.050;2023-02-28T10:44:17;3.60;;;1.17;;
50086;SDS011;35967;50.718;7.050;2023-02-28T10:54:26;3.03;;;1.17;;
50086;SDS011;35967;50.718;7.050;2023-02-28T11:04:34;1.83;;;0.82;;
50086;SDS011;35967;50.718;7.050;2023-02-28T11:14:47;7.33;;;1.10;;
50086;SDS011;35967;50.718;7.050;2023-02-28T11:24:53;4.43;;;1.13;;
50086;SDS011;35967;50.718;7.050;2023-02-28T11:35:02;2.17;;;0.90;;
50086;SDS011;35967;50.718;7.050;2023-02-28T11:45:22;4.77;;;1.00;;
50086;SDS011;35967;50.718;7.050;2023-02-28T11:55:37;2.50;;;1.10;;
50086;SDS011;35967;50.718;7.050;2023-02-28T12:05:44;4.47;;;1.63;;
50086;SDS011;35967;50.718;7.050;2023-02-28T12:15:56;2.93;;;1.00;;
50086;SDS011;35967;50.718;7.050;2023-02-28T12:26:13;3.80;;;1.13;;
50086;SDS011;35967;50.718;7.050;2023-02-28T12:36:23;2.75;;;1.10;;
50086;SDS011;35967;50.718;7.050;2023-02-28T12:46:29;2.63;;;1.07;;
50086;SDS011;35967;50.718;7.050;2023-02-28T12:56:41;4.33;;;1.20;;
50086;SDS011;35967;50.718;7.050;2023-02-28T13:06:54;3.00;;;1.27;;
50086;SDS011;35967;50.718;7.050;2023-02-28T13:17:17;4.77;;;1.20;;
50086;SDS011;35967;50.718;7.050;2023-02-28T13:27:36;3.07;;;1.33;;
50086;SDS011;35967;50.718;7.050;2023-02-28T13:37:43;3.10;;;1.10;;
50086;SDS011;35967;50.718;7.050;2023-02-28T13:47:51;3.63;;;1.63;;
50086;SDS011;35967;50.718;7.050;2023-02-28T13:58:01;3.97;;;1.50;;
50086;SDS011;35967;50.718;7.050;2023-02-28T14:08:21;3.50;;;1.20;;
50086;SDS011;35967;50.718;7.050;2023-02-28T14:18:28;4.73;;;1.47;;
50086;SDS011;35967;50.718;7.050;2023-02-28T14:28:40;12.73;;;5.33;;
50086;SDS011;35967;50.718;7.050;2023-02-28T14:38:55;6.10;;;1.70;;
50086;SDS011;35967;50.718;7.050;2023-02-28T14:49:00;4.23;;;2.13;;
50086;SDS011;35967;50.718;7.050;2023-02-28T15:09:34;4.30;;;1.80;;
50086;SDS011;35967;50.718;7.050;2023-02-28T15:19:39;6.93;;;2.10;;
50086;SDS011;35967;50.718;7.050;2023-02-28T15:29:45;5.00;;;2.43;;
50086;SDS011;35967;50.718;7.050;2023-02-28T15:39:53;4.90;;;2.03;;
50086;SDS011;35967;50.718;7.050;2023-02-28T15:49:58;3.83;;;1.97;;
50086;SDS011;35967;50.718;7.050;2023-02-28T16:00:06;9.23;;;2.17;;
50086;SDS011;35967;50.718;7.050;2023-02-28T16:10:15;9.60;;;3.47;;
50086;SDS011;35967;50.718;7.050;2023-02-28T16:20:21;5.90;;;2.10;;
50086;SDS011;35967;50.718;7.050;2023-02-28T16:30:26;5.43;;;2.47;;
50086;SDS011;35967;50.718;7.050;2023-02-28T16:40:34;5.60;;;2.67;;
50086;SDS011;35967;50.718;7.050;2023-02-28T16:50:38;4.57;;;2.00;;
50086;SDS011;35967;50.718;7.050;2023-02-28T17:00:43;5.03;;;2.30;;
50086;SDS011;35967;50.718;7.050;2023-02-28T17:10:47;6.80;;;2.27;;
50086;SDS011;35967;50.718;7.050;2023-02-28T17:20:51;6.50;;;2.30;;
50086;SDS011;35967;50.718;7.050;2023-02-28T17:30:54;7.17;;;2.13;;
50086;SDS011;35967;50.718;7.050;2023-02-28T17:41:00;6.27;;;2.50;;
50086;SDS011;35967;50.718;7.050;2023-02-28T17:51:03;5.73;;;2.60;;
50086;SDS011;35967;50.718;7.050;2023-02-28T18:01:08;7.37;;;3.80;;
50086;SDS011;35967;50.718;7.050;2023-02-28T18:11:14;11.00;;;5.40;;
50086;SDS011;35967;50.718;7.050;2023-02-28T18:21:23;33.57;;;14.27;;
50086;SDS011;35967;50.718;7.050;2023-02-28T18:31:27;28.37;;;12.87;;
50086;SDS011;35967;50.718;7.050;2023-02-28T18:41:34;29.93;;;13.07;;
50086;SDS011;35967;50.718;7.050;2023-02-28T18:51:37;27.47;;;9.57;;
50086;SDS011;35967;50.718;7.050;2023-02-28T19:01:41;15.53;;;8.60;;
50086;SDS011;35967;50.718;7.050;2023-02-28T19:11:47;19.13;;;8.37;;
50086;SDS011;35967;50.718;7.050;2023-02-28T19:21:51;17.37;;;8.07;;
50086;SDS011;35967;50.718;7.050;2023-02-28T19:31:56;12.00;;;6.10;;
50086;SDS011;35967;50.718;7.050;2023-02-28T19:42:21;14.00;;;6.50;;
50086;SDS011;35967;50.718;7.050;2023-02-28T19:52:25;15.00;;;6.83;;
50086;SDS011;35967;50.718;7.050;2023-02-28T20:02:30;21.83;;;9.23;;
50086;SDS011;35967;50.718;7.050;2023-02-28T20:12:33;17.20;;;7.70;;
50086;SDS011;35967;50.718;7.050;2023-02-28T20:22:38;19.20;;;7.23;;
50086;SDS011;35967;50.718;7.050;2023-02-28T20:32:42;16.30;;;7.10;;
50086;SDS011;35967;50.718;7.050;2023-02-28T20:42:46;18.27;;;9.57;;
50086;SDS011;35967;50.718;7.050;2023-02-28T20:52:50;20.73;;;8.10;;
50086;SDS011;35967;50.718;7.050;2023-02-28T21:02:54;19.57;;;8.67;;
50086;SDS011;35967;50.718;7.050;2023-02-28T21:12:59;15.00;;;7.90;;
50086;SDS011;35967;50.718;7.050;2023-02-28T21:23:04;17.50;;;9.43;;
50086;SDS011;35967;50.718;7.050;2023-02-28T21:33:07;19.83;;;9.53;;
50086;SDS011;35967;50.718;7.050;2023-02-28T21:43:11;22.57;;;11.03;;
50086;SDS011;35967;50.718;7.050;2023-02-28T21:53:15;17.87;;;9.83;;
50086;SDS011;35967;50.718;7.050;2023-02-28T22:03:19;19.97;;;9.87;;
50086;SDS011;35967;50.718;7.050;2023-02-28T22:13:24;19.70;;;9.33;;
50086;SDS011;35967;50.718;7.050;2023-02-28T22:23:28;24.30;;;10.03;;
50086;SDS011;35967;50.718;7.050;2023-02-28T22:33:32;21.70;;;9.93;;
50086;SDS011;35967;50.718;7.050;2023-02-28T22:43:56;17.67;;;9.10;;
50086;SDS011;35967;50.718;7.050;2023-02-28T22:54:00;22.63;;;9.00;;
50086;SDS011;35967;50.718;7.050;2023-02-28T23:04:06;17.10;;;8.77;;
50086;SDS011;35967;50.718;7.050;2023-02-28T23:14:09;16.83;;;8.67;;
50086;SDS011;35967;50.718;7.050;2023-02-28T23:24:16;18.33;;;9.07;;
50086;SDS011;35967;50.718;7.050;2023-02-28T23:34:20;19.10;;;10.00;;
50086;SDS011;35967;50.718;7.050;2023-02-28T23:44:28;18.30;;;9.03;;
50086;SDS011;35967;50.718;7.050;2023-02-28T23:54:32;27.60;;;11.33;;
